sensor_id;sensor_type;location;lat;lon;timestamp;P1;durP1;ratioP1;P2;durP2;ratioP2
49458;SDS011;35354;51.296;16.924;2022-10-16T00:00:35;58.97;;;42.78;;
49458;SDS011;35354;51.296;16.924;2022-10-16T00:03:02;48.00;;;35.67;;
49458;SDS011;35354;51.296;16.924;2022-10-16T00:05:28;33.33;;;26.77;;
49458;SDS011;35354;51.296;16.924;2022-10-16T00:07:53;39.72;;;30.27;;
49458;SDS011;35354;51.296;16.924;2022-10-16T00:10:18;34.53;;;27.45;;
49458;SDS011;35354;51.296;16.924;2022-10-16T00:12:44;39.20;;;30.42;;
49458;SDS011;35354;51.296;16.924;2022-10-16T00:15:09;33.28;;;26.67;;
49458;SDS011;35354;51.296;16.924;2022-10-16T00:17:35;34.20;;;26.63;;
49458;SDS011;35354;51.296;16.924;2022-10-16T00:20:00;26.40;;;22.90;;
49458;SDS011;35354;51.296;16.924;2022-10-16T00:22:26;25.35;;;22.63;;
49458;SDS011;35354;51.296;16.924;2022-10-16T00:24:51;25.90;;;22.95;;
49458;SDS011;35354;51.296;16.924;2022-10-16T00:27:17;29.85;;;23.42;;
49458;SDS011;35354;51.296;16.924;2022-10-16T00:29:42;26.33;;;21.85;;
49458;SDS011;35354;51.296;16.924;2022-10-16T00:32:08;28.35;;;22.05;;
49458;SDS011;35354;51.296;16.924;2022-10-16T00:34:34;22.38;;;19.33;;
49458;SDS011;35354;51.296;16.924;2022-10-16T00:37:00;25.42;;;19.52;;
49458;SDS011;35354;51.296;16.924;2022-10-16T00:39:25;24.88;;;19.00;;
49458;SDS011;35354;51.296;16.924;2022-10-16T00:41:50;22.25;;;19.40;;
49458;SDS011;35354;51.296;16.924;2022-10-16T00:47:08;23.27;;;19.17;;
49458;SDS011;35354;51.296;16.924;2022-10-16T00:49:37;21.05;;;18.15;;
49458;SDS011;35354;51.296;16.924;2022-10-16T00:52:03;22.88;;;18.90;;
49458;SDS011;35354;51.296;16.924;2022-10-16T00:54:31;19.40;;;17.30;;
49458;SDS011;35354;51.296;16.924;2022-10-16T00:56:58;22.00;;;17.85;;
49458;SDS011;35354;51.296;16.924;2022-10-16T00:59:27;19.02;;;16.88;;
49458;SDS011;35354;51.296;16.924;2022-10-16T01:01:58;19.73;;;17.52;;
49458;SDS011;35354;51.296;16.924;2022-10-16T01:04:25;17.27;;;15.20;;
49458;SDS011;35354;51.296;16.924;2022-10-16T01:09:47;18.65;;;16.15;;
49458;SDS011;35354;51.296;16.924;2022-10-16T01:15:25;16.02;;;13.65;;
49458;SDS011;35354;51.296;16.924;2022-10-16T01:20:27;17.98;;;14.05;;
49458;SDS011;35354;51.296;16.924;2022-10-16T01:22:56;17.02;;;13.73;;
49458;SDS011;35354;51.296;16.924;2022-10-16T01:28:33;15.45;;;13.57;;
49458;SDS011;35354;51.296;16.924;2022-10-16T01:31:04;14.77;;;13.20;;
49458;SDS011;35354;51.296;16.924;2022-10-16T01:33:35;15.88;;;13.50;;
49458;SDS011;35354;51.296;16.924;2022-10-16T01:36:10;15.20;;;13.70;;
49458;SDS011;35354;51.296;16.924;2022-10-16T01:38:40;16.30;;;13.35;;
49458;SDS011;35354;51.296;16.924;2022-10-16T01:41:24;14.15;;;12.65;;
49458;SDS011;35354;51.296;16.924;2022-10-16T01:44:04;15.40;;;13.15;;
49458;SDS011;35354;51.296;16.924;2022-10-16T01:46:36;14.63;;;13.13;;
49458;SDS011;35354;51.296;16.924;2022-10-16T01:49:04;15.68;;;12.13;;
49458;SDS011;35354;51.296;16.924;2022-10-16T01:51:31;16.75;;;12.52;;
49458;SDS011;35354;51.296;16.924;2022-10-16T01:53:59;14.45;;;12.90;;
49458;SDS011;35354;51.296;16.924;2022-10-16T01:56:27;14.52;;;11.75;;
49458;SDS011;35354;51.296;16.924;2022-10-16T01:58:55;13.20;;;11.70;;
49458;SDS011;35354;51.296;16.924;2022-10-16T02:01:26;13.98;;;11.88;;
49458;SDS011;35354;51.296;16.924;2022-10-16T02:03:57;14.57;;;12.57;;
49458;SDS011;35354;51.296;16.924;2022-10-16T02:06:26;14.20;;;12.25;;
49458;SDS011;35354;51.296;16.924;2022-10-16T02:08:52;15.35;;;11.80;;
49458;SDS011;35354;51.296;16.924;2022-10-16T02:11:18;14.57;;;11.73;;
49458;SDS011;35354;51.296;16.924;2022-10-16T02:13:45;12.95;;;11.52;;
49458;SDS011;35354;51.296;16.924;2022-10-16T02:16:13;15.75;;;11.13;;
49458;SDS011;35354;51.296;16.924;2022-10-16T02:18:39;12.02;;;10.75;;
49458;SDS011;35354;51.296;16.924;2022-10-16T02:21:17;14.23;;;11.73;;
49458;SDS011;35354;51.296;16.924;2022-10-16T02:23:51;13.90;;;11.00;;
49458;SDS011;35354;51.296;16.924;2022-10-16T02:26:22;13.05;;;10.43;;
49458;SDS011;35354;51.296;16.924;2022-10-16T02:29:02;13.00;;;10.98;;
49458;SDS011;35354;51.296;16.924;2022-10-16T02:31:35;12.75;;;11.43;;
49458;SDS011;35354;51.296;16.924;2022-10-16T02:34:06;12.73;;;10.85;;
49458;SDS011;35354;51.296;16.924;2022-10-16T02:36:33;11.23;;;9.88;;
49458;SDS011;35354;51.296;16.924;2022-10-16T02:39:01;11.23;;;9.55;;
49458;SDS011;35354;51.296;16.924;2022-10-16T02:41:28;12.43;;;10.23;;
49458;SDS011;35354;51.296;16.924;2022-10-16T02:43:54;10.57;;;9.50;;
49458;SDS011;35354;51.296;16.924;2022-10-16T02:46:20;12.73;;;10.30;;
49458;SDS011;35354;51.296;16.924;2022-10-16T02:48:45;12.10;;;10.02;;
49458;SDS011;35354;51.296;16.924;2022-10-16T02:51:11;11.02;;;9.38;;
49458;SDS011;35354;51.296;16.924;2022-10-16T02:53:36;11.27;;;9.52;;
49458;SDS011;35354;51.296;16.924;2022-10-16T02:56:02;14.70;;;10.27;;
49458;SDS011;35354;51.296;16.924;2022-10-16T02:58:27;12.23;;;9.82;;
49458;SDS011;35354;51.296;16.924;2022-10-16T03:00:52;11.07;;;9.73;;
49458;SDS011;35354;51.296;16.924;2022-10-16T03:03:18;11.48;;;10.15;;
49458;SDS011;35354;51.296;16.924;2022-10-16T03:05:43;10.77;;;9.60;;
49458;SDS011;35354;51.296;16.924;2022-10-16T03:08:10;10.63;;;9.63;;
49458;SDS011;35354;51.296;16.924;2022-10-16T03:10:36;11.50;;;9.90;;
49458;SDS011;35354;51.296;16.924;2022-10-16T03:13:02;16.65;;;11.27;;
49458;SDS011;35354;51.296;16.924;2022-10-16T03:15:28;10.80;;;9.70;;
49458;SDS011;35354;51.296;16.924;2022-10-16T03:17:53;11.55;;;10.35;;
49458;SDS011;35354;51.296;16.924;2022-10-16T03:20:19;10.90;;;9.75;;
49458;SDS011;35354;51.296;16.924;2022-10-16T03:22:44;12.32;;;10.48;;
49458;SDS011;35354;51.296;16.924;2022-10-16T03:25:10;14.98;;;10.40;;
49458;SDS011;35354;51.296;16.924;2022-10-16T03:27:35;13.20;;;10.50;;
49458;SDS011;35354;51.296;16.924;2022-10-16T03:30:00;12.85;;;10.57;;
49458;SDS011;35354;51.296;16.924;2022-10-16T03:32:26;12.93;;;9.52;;
49458;SDS011;35354;51.296;16.924;2022-10-16T03:34:53;11.23;;;9.80;;
49458;SDS011;35354;51.296;16.924;2022-10-16T03:37:19;13.82;;;10.18;;
49458;SDS011;35354;51.296;16.924;2022-10-16T03:39:45;11.00;;;9.90;;
49458;SDS011;35354;51.296;16.924;2022-10-16T03:42:10;14.18;;;10.75;;
49458;SDS011;35354;51.296;16.924;2022-10-16T03:44:35;13.45;;;10.70;;
49458;SDS011;35354;51.296;16.924;2022-10-16T03:47:01;12.05;;;10.57;;
49458;SDS011;35354;51.296;16.924;2022-10-16T03:49:26;11.85;;;10.65;;
49458;SDS011;35354;51.296;16.924;2022-10-16T03:51:51;11.95;;;10.73;;
49458;SDS011;35354;51.296;16.924;2022-10-16T03:54:16;14.48;;;11.65;;
49458;SDS011;35354;51.296;16.924;2022-10-16T03:56:42;14.32;;;11.15;;
49458;SDS011;35354;51.296;16.924;2022-10-16T03:59:07;12.88;;;11.35;;
49458;SDS011;35354;51.296;16.924;2022-10-16T04:01:33;11.80;;;10.25;;
49458;SDS011;35354;51.296;16.924;2022-10-16T04:03:58;13.23;;;11.02;;
49458;SDS011;35354;51.296;16.924;2022-10-16T04:06:23;11.90;;;10.20;;
49458;SDS011;35354;51.296;16.924;2022-10-16T04:08:49;13.27;;;11.13;;
49458;SDS011;35354;51.296;16.924;2022-10-16T04:11:14;13.20;;;10.32;;
49458;SDS011;35354;51.296;16.924;2022-10-16T04:13:39;14.00;;;11.00;;
49458;SDS011;35354;51.296;16.924;2022-10-16T04:16:05;13.70;;;10.30;;
49458;SDS011;35354;51.296;16.924;2022-10-16T04:18:30;12.82;;;10.77;;
49458;SDS011;35354;51.296;16.924;2022-10-16T04:20:56;12.10;;;10.85;;
49458;SDS011;35354;51.296;16.924;2022-10-16T04:23:21;11.95;;;10.48;;
49458;SDS011;35354;51.296;16.924;2022-10-16T04:25:48;13.45;;;11.13;;
49458;SDS011;35354;51.296;16.924;2022-10-16T04:28:13;12.93;;;11.52;;
49458;SDS011;35354;51.296;16.924;2022-10-16T04:30:38;11.95;;;10.70;;
49458;SDS011;35354;51.296;16.924;2022-10-16T04:33:04;12.52;;;11.30;;
49458;SDS011;35354;51.296;16.924;2022-10-16T04:35:29;14.30;;;11.50;;
49458;SDS011;35354;51.296;16.924;2022-10-16T04:37:56;12.45;;;10.98;;
49458;SDS011;35354;51.296;16.924;2022-10-16T04:40:23;11.75;;;10.05;;
49458;SDS011;35354;51.296;16.924;2022-10-16T04:42:48;11.55;;;10.35;;
49458;SDS011;35354;51.296;16.924;2022-10-16T04:45:14;13.00;;;11.60;;
49458;SDS011;35354;51.296;16.924;2022-10-16T04:47:39;11.80;;;10.48;;
49458;SDS011;35354;51.296;16.924;2022-10-16T04:50:05;11.95;;;10.63;;
49458;SDS011;35354;51.296;16.924;2022-10-16T04:52:31;12.98;;;11.68;;
49458;SDS011;35354;51.296;16.924;2022-10-16T04:54:56;11.85;;;10.63;;
49458;SDS011;35354;51.296;16.924;2022-10-16T04:57:25;13.00;;;10.82;;
49458;SDS011;35354;51.296;16.924;2022-10-16T04:59:51;12.02;;;10.18;;
49458;SDS011;35354;51.296;16.924;2022-10-16T05:02:17;13.38;;;11.60;;
49458;SDS011;35354;51.296;16.924;2022-10-16T05:04:42;17.20;;;12.05;;
49458;SDS011;35354;51.296;16.924;2022-10-16T05:07:08;12.05;;;10.75;;
49458;SDS011;35354;51.296;16.924;2022-10-16T05:09:33;15.10;;;11.82;;
49458;SDS011;35354;51.296;16.924;2022-10-16T05:11:59;14.43;;;12.30;;
49458;SDS011;35354;51.296;16.924;2022-10-16T05:14:24;11.85;;;10.63;;
49458;SDS011;35354;51.296;16.924;2022-10-16T05:16:49;13.70;;;11.82;;
49458;SDS011;35354;51.296;16.924;2022-10-16T05:19:15;13.65;;;11.45;;
49458;SDS011;35354;51.296;16.924;2022-10-16T05:21:40;12.93;;;10.95;;
49458;SDS011;35354;51.296;16.924;2022-10-16T05:24:06;12.23;;;10.70;;
49458;SDS011;35354;51.296;16.924;2022-10-16T05:26:31;12.88;;;10.63;;
49458;SDS011;35354;51.296;16.924;2022-10-16T05:28:56;13.02;;;11.43;;
49458;SDS011;35354;51.296;16.924;2022-10-16T05:31:22;12.23;;;11.02;;
49458;SDS011;35354;51.296;16.924;2022-10-16T05:33:47;12.23;;;11.02;;
49458;SDS011;35354;51.296;16.924;2022-10-16T05:36:13;14.73;;;11.60;;
49458;SDS011;35354;51.296;16.924;2022-10-16T05:38:38;13.77;;;11.25;;
49458;SDS011;35354;51.296;16.924;2022-10-16T05:41:05;13.48;;;11.68;;
49458;SDS011;35354;51.296;16.924;2022-10-16T05:43:31;13.05;;;11.75;;
49458;SDS011;35354;51.296;16.924;2022-10-16T05:45:57;13.80;;;11.55;;
49458;SDS011;35354;51.296;16.924;2022-10-16T05:48:27;12.67;;;11.37;;
49458;SDS011;35354;51.296;16.924;2022-10-16T05:50:56;15.15;;;13.02;;
49458;SDS011;35354;51.296;16.924;2022-10-16T05:53:26;13.88;;;12.40;;
49458;SDS011;35354;51.296;16.924;2022-10-16T05:55:53;14.88;;;12.10;;
49458;SDS011;35354;51.296;16.924;2022-10-16T05:58:19;13.15;;;11.73;;
49458;SDS011;35354;51.296;16.924;2022-10-16T06:00:44;12.43;;;10.88;;
49458;SDS011;35354;51.296;16.924;2022-10-16T06:03:10;14.05;;;11.05;;
49458;SDS011;35354;51.296;16.924;2022-10-16T06:05:35;12.20;;;10.82;;
49458;SDS011;35354;51.296;16.924;2022-10-16T06:08:00;13.23;;;11.32;;
49458;SDS011;35354;51.296;16.924;2022-10-16T06:10:26;12.55;;;10.15;;
49458;SDS011;35354;51.296;16.924;2022-10-16T06:12:51;13.48;;;11.63;;
49458;SDS011;35354;51.296;16.924;2022-10-16T06:15:16;15.98;;;11.82;;
49458;SDS011;35354;51.296;16.924;2022-10-16T06:17:42;12.43;;;10.52;;
49458;SDS011;35354;51.296;16.924;2022-10-16T06:20:07;11.70;;;9.75;;
49458;SDS011;35354;51.296;16.924;2022-10-16T06:22:33;11.93;;;10.73;;
49458;SDS011;35354;51.296;16.924;2022-10-16T06:24:58;11.93;;;10.32;;
49458;SDS011;35354;51.296;16.924;2022-10-16T06:27:23;13.90;;;11.77;;
49458;SDS011;35354;51.296;16.924;2022-10-16T06:29:49;13.35;;;11.10;;
49458;SDS011;35354;51.296;16.924;2022-10-16T06:32:14;14.40;;;11.45;;
49458;SDS011;35354;51.296;16.924;2022-10-16T06:34:39;12.32;;;11.02;;
49458;SDS011;35354;51.296;16.924;2022-10-16T06:37:05;15.40;;;12.13;;
49458;SDS011;35354;51.296;16.924;2022-10-16T06:39:31;18.92;;;15.27;;
49458;SDS011;35354;51.296;16.924;2022-10-16T06:41:56;11.55;;;10.30;;
49458;SDS011;35354;51.296;16.924;2022-10-16T06:44:21;24.50;;;21.83;;
49458;SDS011;35354;51.296;16.924;2022-10-16T06:46:47;12.30;;;10.77;;
49458;SDS011;35354;51.296;16.924;2022-10-16T06:49:12;17.52;;;14.75;;
49458;SDS011;35354;51.296;16.924;2022-10-16T06:51:38;14.98;;;12.00;;
49458;SDS011;35354;51.296;16.924;2022-10-16T06:54:05;16.02;;;14.30;;
49458;SDS011;35354;51.296;16.924;2022-10-16T06:56:32;15.63;;;12.63;;
49458;SDS011;35354;51.296;16.924;2022-10-16T06:58:57;11.10;;;10.00;;
49458;SDS011;35354;51.296;16.924;2022-10-16T07:01:23;12.55;;;10.50;;
49458;SDS011;35354;51.296;16.924;2022-10-16T07:03:50;11.73;;;10.52;;
49458;SDS011;35354;51.296;16.924;2022-10-16T07:06:16;11.93;;;9.65;;
49458;SDS011;35354;51.296;16.924;2022-10-16T07:08:44;12.63;;;9.38;;
49458;SDS011;35354;51.296;16.924;2022-10-16T07:11:12;10.13;;;8.88;;
49458;SDS011;35354;51.296;16.924;2022-10-16T07:13:39;10.23;;;8.95;;
49458;SDS011;35354;51.296;16.924;2022-10-16T07:16:07;10.00;;;9.00;;
49458;SDS011;35354;51.296;16.924;2022-10-16T07:18:34;9.70;;;8.70;;
49458;SDS011;35354;51.296;16.924;2022-10-16T07:21:07;9.88;;;8.88;;
49458;SDS011;35354;51.296;16.924;2022-10-16T07:23:34;10.63;;;8.98;;
49458;SDS011;35354;51.296;16.924;2022-10-16T07:25:59;9.75;;;8.75;;
49458;SDS011;35354;51.296;16.924;2022-10-16T07:28:25;9.02;;;8.13;;
49458;SDS011;35354;51.296;16.924;2022-10-16T07:30:51;11.70;;;9.23;;
49458;SDS011;35354;51.296;16.924;2022-10-16T07:33:16;11.02;;;8.70;;
49458;SDS011;35354;51.296;16.924;2022-10-16T07:35:51;12.02;;;10.73;;
49458;SDS011;35354;51.296;16.924;2022-10-16T07:38:18;9.43;;;8.10;;
49458;SDS011;35354;51.296;16.924;2022-10-16T07:40:44;14.63;;;13.10;;
49458;SDS011;35354;51.296;16.924;2022-10-16T07:43:09;8.98;;;8.07;;
49458;SDS011;35354;51.296;16.924;2022-10-16T07:45:35;9.00;;;7.68;;
49458;SDS011;35354;51.296;16.924;2022-10-16T07:48:01;7.75;;;7.03;;
49458;SDS011;35354;51.296;16.924;2022-10-16T07:50:26;8.07;;;7.00;;
49458;SDS011;35354;51.296;16.924;2022-10-16T07:52:52;8.57;;;7.25;;
49458;SDS011;35354;51.296;16.924;2022-10-16T07:55:17;8.40;;;6.72;;
49458;SDS011;35354;51.296;16.924;2022-10-16T07:57:42;7.00;;;6.30;;
49458;SDS011;35354;51.296;16.924;2022-10-16T08:00:08;7.82;;;6.32;;
49458;SDS011;35354;51.296;16.924;2022-10-16T08:02:38;7.47;;;5.95;;
49458;SDS011;35354;51.296;16.924;2022-10-16T08:05:04;7.93;;;5.72;;
49458;SDS011;35354;51.296;16.924;2022-10-16T08:07:30;8.27;;;6.55;;
49458;SDS011;35354;51.296;16.924;2022-10-16T08:09:56;5.95;;;5.45;;
49458;SDS011;35354;51.296;16.924;2022-10-16T08:12:23;6.43;;;5.75;;
49458;SDS011;35354;51.296;16.924;2022-10-16T08:14:48;8.60;;;6.35;;
49458;SDS011;35354;51.296;16.924;2022-10-16T08:17:14;6.43;;;5.82;;
49458;SDS011;35354;51.296;16.924;2022-10-16T08:19:43;6.90;;;6.15;;
49458;SDS011;35354;51.296;16.924;2022-10-16T08:22:09;7.72;;;6.05;;
49458;SDS011;35354;51.296;16.924;2022-10-16T08:24:34;7.90;;;6.05;;
49458;SDS011;35354;51.296;16.924;2022-10-16T08:27:02;6.53;;;5.93;;
49458;SDS011;35354;51.296;16.924;2022-10-16T08:29:27;7.68;;;6.63;;
49458;SDS011;35354;51.296;16.924;2022-10-16T08:31:53;7.95;;;5.60;;
49458;SDS011;35354;51.296;16.924;2022-10-16T08:34:18;6.15;;;5.55;;
49458;SDS011;35354;51.296;16.924;2022-10-16T08:36:44;6.75;;;5.85;;
49458;SDS011;35354;51.296;16.924;2022-10-16T08:39:09;6.63;;;5.72;;
49458;SDS011;35354;51.296;16.924;2022-10-16T08:47:17;8.38;;;6.45;;
49458;SDS011;35354;51.296;16.924;2022-10-16T08:52:34;8.75;;;7.85;;
49458;SDS011;35354;51.296;16.924;2022-10-16T08:55:03;15.93;;;11.82;;
49458;SDS011;35354;51.296;16.924;2022-10-16T08:57:29;6.20;;;5.55;;
49458;SDS011;35354;51.296;16.924;2022-10-16T08:59:57;6.70;;;5.07;;
49458;SDS011;35354;51.296;16.924;2022-10-16T09:08:25;6.32;;;5.60;;
49458;SDS011;35354;51.296;16.924;2022-10-16T09:11:01;5.32;;;4.82;;
49458;SDS011;35354;51.296;16.924;2022-10-16T09:13:38;7.97;;;5.05;;
49458;SDS011;35354;51.296;16.924;2022-10-16T09:16:28;5.88;;;5.28;;
49458;SDS011;35354;51.296;16.924;2022-10-16T09:22:04;5.90;;;5.30;;
49458;SDS011;35354;51.296;16.924;2022-10-16T09:24:39;7.45;;;5.10;;
49458;SDS011;35354;51.296;16.924;2022-10-16T09:27:04;7.60;;;5.90;;
49458;SDS011;35354;51.296;16.924;2022-10-16T09:29:33;5.63;;;5.03;;
49458;SDS011;35354;51.296;16.924;2022-10-16T09:31:58;8.23;;;6.97;;
49458;SDS011;35354;51.296;16.924;2022-10-16T09:34:39;6.15;;;5.43;;
49458;SDS011;35354;51.296;16.924;2022-10-16T09:37:12;9.93;;;8.52;;
49458;SDS011;35354;51.296;16.924;2022-10-16T09:42:10;9.07;;;6.93;;
49458;SDS011;35354;51.296;16.924;2022-10-16T09:44:39;5.30;;;4.80;;
49458;SDS011;35354;51.296;16.924;2022-10-16T09:47:15;5.28;;;4.78;;
49458;SDS011;35354;51.296;16.924;2022-10-16T09:52:19;9.75;;;7.68;;
49458;SDS011;35354;51.296;16.924;2022-10-16T09:54:57;14.60;;;10.18;;
49458;SDS011;35354;51.296;16.924;2022-10-16T09:57:24;16.30;;;14.60;;
49458;SDS011;35354;51.296;16.924;2022-10-16T09:59:51;9.13;;;6.82;;
49458;SDS011;35354;51.296;16.924;2022-10-16T10:02:30;6.55;;;5.00;;
49458;SDS011;35354;51.296;16.924;2022-10-16T10:05:00;8.25;;;7.18;;
49458;SDS011;35354;51.296;16.924;2022-10-16T10:07:30;4.88;;;4.38;;
49458;SDS011;35354;51.296;16.924;2022-10-16T10:09:59;5.18;;;4.68;;
49458;SDS011;35354;51.296;16.924;2022-10-16T10:12:29;5.40;;;4.88;;
49458;SDS011;35354;51.296;16.924;2022-10-16T10:15:20;6.78;;;4.60;;
49458;SDS011;35354;51.296;16.924;2022-10-16T10:17:49;5.80;;;4.18;;
49458;SDS011;35354;51.296;16.924;2022-10-16T10:22:50;9.77;;;8.50;;
49458;SDS011;35354;51.296;16.924;2022-10-16T10:25:19;10.27;;;9.13;;
49458;SDS011;35354;51.296;16.924;2022-10-16T10:30:40;5.70;;;5.10;;
49458;SDS011;35354;51.296;16.924;2022-10-16T10:46:57;4.43;;;4.03;;
49458;SDS011;35354;51.296;16.924;2022-10-16T10:49:42;4.65;;;4.15;;
49458;SDS011;35354;51.296;16.924;2022-10-16T10:52:31;4.40;;;4.00;;
49458;SDS011;35354;51.296;16.924;2022-10-16T10:55:10;5.30;;;4.35;;
49458;SDS011;35354;51.296;16.924;2022-10-16T11:00:34;6.95;;;6.25;;
49458;SDS011;35354;51.296;16.924;2022-10-16T11:05:41;14.25;;;12.80;;
49458;SDS011;35354;51.296;16.924;2022-10-16T11:11:02;8.73;;;7.93;;
49458;SDS011;35354;51.296;16.924;2022-10-16T11:13:43;5.80;;;5.30;;
49458;SDS011;35354;51.296;16.924;2022-10-16T11:16:28;5.63;;;5.13;;
49458;SDS011;35354;51.296;16.924;2022-10-16T11:27:37;11.98;;;9.88;;
49458;SDS011;35354;51.296;16.924;2022-10-16T11:30:12;14.43;;;11.77;;
49458;SDS011;35354;51.296;16.924;2022-10-16T11:35:31;5.25;;;4.75;;
49458;SDS011;35354;51.296;16.924;2022-10-16T11:37:58;12.95;;;9.68;;
49458;SDS011;35354;51.296;16.924;2022-10-16T11:40:32;10.43;;;5.15;;
49458;SDS011;35354;51.296;16.924;2022-10-16T11:43:13;5.55;;;4.90;;
49458;SDS011;35354;51.296;16.924;2022-10-16T11:45:46;7.47;;;5.75;;
49458;SDS011;35354;51.296;16.924;2022-10-16T11:50:57;10.80;;;9.32;;
49458;SDS011;35354;51.296;16.924;2022-10-16T11:56:33;10.25;;;9.25;;
49458;SDS011;35354;51.296;16.924;2022-10-16T11:59:10;11.25;;;10.15;;
49458;SDS011;35354;51.296;16.924;2022-10-16T12:01:48;7.18;;;6.55;;
49458;SDS011;35354;51.296;16.924;2022-10-16T12:07:19;8.38;;;7.57;;
49458;SDS011;35354;51.296;16.924;2022-10-16T12:09:48;6.97;;;5.90;;
49458;SDS011;35354;51.296;16.924;2022-10-16T12:12:27;5.00;;;4.50;;
49458;SDS011;35354;51.296;16.924;2022-10-16T12:17:50;3.97;;;3.67;;
49458;SDS011;35354;51.296;16.924;2022-10-16T12:22:52;4.78;;;4.38;;
49458;SDS011;35354;51.296;16.924;2022-10-16T12:25:26;6.03;;;4.40;;
49458;SDS011;35354;51.296;16.924;2022-10-16T12:28:17;6.07;;;5.47;;
49458;SDS011;35354;51.296;16.924;2022-10-16T12:30:52;14.90;;;11.32;;
49458;SDS011;35354;51.296;16.924;2022-10-16T12:33:26;48.97;;;29.08;;
49458;SDS011;35354;51.296;16.924;2022-10-16T12:35:54;16.42;;;10.82;;
49458;SDS011;35354;51.296;16.924;2022-10-16T12:38:21;13.02;;;8.68;;
49458;SDS011;35354;51.296;16.924;2022-10-16T12:41:09;9.88;;;7.47;;
49458;SDS011;35354;51.296;16.924;2022-10-16T12:43:39;16.05;;;11.50;;
49458;SDS011;35354;51.296;16.924;2022-10-16T12:48:35;20.40;;;10.70;;
49458;SDS011;35354;51.296;16.924;2022-10-16T12:51:12;15.63;;;9.25;;
49458;SDS011;35354;51.296;16.924;2022-10-16T12:53:57;23.10;;;13.23;;
49458;SDS011;35354;51.296;16.924;2022-10-16T12:56:24;61.53;;;35.67;;
49458;SDS011;35354;51.296;16.924;2022-10-16T12:59:14;34.03;;;18.83;;
49458;SDS011;35354;51.296;16.924;2022-10-16T13:01:42;30.10;;;18.60;;
49458;SDS011;35354;51.296;16.924;2022-10-16T13:04:18;28.35;;;18.20;;
49458;SDS011;35354;51.296;16.924;2022-10-16T13:06:53;35.33;;;24.00;;
49458;SDS011;35354;51.296;16.924;2022-10-16T13:09:38;21.75;;;14.02;;
49458;SDS011;35354;51.296;16.924;2022-10-16T13:12:16;44.15;;;27.45;;
49458;SDS011;35354;51.296;16.924;2022-10-16T13:18:36;22.35;;;14.80;;
49458;SDS011;35354;51.296;16.924;2022-10-16T13:29:16;31.67;;;22.73;;
49458;SDS011;35354;51.296;16.924;2022-10-16T13:31:43;16.13;;;11.43;;
49458;SDS011;35354;51.296;16.924;2022-10-16T13:34:12;22.55;;;14.60;;
49458;SDS011;35354;51.296;16.924;2022-10-16T13:36:43;18.70;;;14.45;;
49458;SDS011;35354;51.296;16.924;2022-10-16T13:44:39;18.33;;;13.20;;
49458;SDS011;35354;51.296;16.924;2022-10-16T13:47:15;27.40;;;19.60;;
49458;SDS011;35354;51.296;16.924;2022-10-16T13:49:42;31.63;;;22.35;;
49458;SDS011;35354;51.296;16.924;2022-10-16T13:52:15;13.75;;;11.38;;
49458;SDS011;35354;51.296;16.924;2022-10-16T13:54:45;10.02;;;8.80;;
49458;SDS011;35354;51.296;16.924;2022-10-16T13:57:12;18.48;;;13.00;;
49458;SDS011;35354;51.296;16.924;2022-10-16T13:59:39;14.32;;;10.85;;
49458;SDS011;35354;51.296;16.924;2022-10-16T14:04:53;8.35;;;7.53;;
49458;SDS011;35354;51.296;16.924;2022-10-16T14:07:26;9.05;;;6.53;;
49458;SDS011;35354;51.296;16.924;2022-10-16T14:09:55;6.78;;;5.78;;
49458;SDS011;35354;51.296;16.924;2022-10-16T14:12:22;6.57;;;5.88;;
49458;SDS011;35354;51.296;16.924;2022-10-16T14:14:52;5.18;;;4.68;;
49458;SDS011;35354;51.296;16.924;2022-10-16T14:17:20;9.70;;;6.32;;
49458;SDS011;35354;51.296;16.924;2022-10-16T14:19:50;11.07;;;8.65;;
49458;SDS011;35354;51.296;16.924;2022-10-16T14:24:57;11.30;;;8.73;;
49458;SDS011;35354;51.296;16.924;2022-10-16T14:27:25;13.60;;;8.10;;
49458;SDS011;35354;51.296;16.924;2022-10-16T14:32:39;12.32;;;9.45;;
49458;SDS011;35354;51.296;16.924;2022-10-16T14:35:21;12.18;;;8.02;;
49458;SDS011;35354;51.296;16.924;2022-10-16T14:37:52;10.75;;;7.85;;
49458;SDS011;35354;51.296;16.924;2022-10-16T14:40:18;8.43;;;7.10;;
49458;SDS011;35354;51.296;16.924;2022-10-16T14:42:45;6.22;;;5.63;;
49458;SDS011;35354;51.296;16.924;2022-10-16T14:45:11;5.70;;;5.05;;
49458;SDS011;35354;51.296;16.924;2022-10-16T14:47:37;5.47;;;4.93;;
49458;SDS011;35354;51.296;16.924;2022-10-16T14:50:14;6.00;;;5.15;;
49458;SDS011;35354;51.296;16.924;2022-10-16T14:52:40;11.02;;;7.90;;
49458;SDS011;35354;51.296;16.924;2022-10-16T14:55:05;15.45;;;12.23;;
49458;SDS011;35354;51.296;16.924;2022-10-16T14:57:33;13.80;;;12.05;;
49458;SDS011;35354;51.296;16.924;2022-10-16T15:00:01;14.38;;;11.23;;
49458;SDS011;35354;51.296;16.924;2022-10-16T15:04:54;9.82;;;7.90;;
49458;SDS011;35354;51.296;16.924;2022-10-16T15:07:21;8.05;;;7.22;;
49458;SDS011;35354;51.296;16.924;2022-10-16T15:09:46;8.18;;;7.38;;
49458;SDS011;35354;51.296;16.924;2022-10-16T15:12:12;9.18;;;8.00;;
49458;SDS011;35354;51.296;16.924;2022-10-16T15:14:37;11.35;;;10.25;;
49458;SDS011;35354;51.296;16.924;2022-10-16T15:17:03;12.32;;;10.38;;
49458;SDS011;35354;51.296;16.924;2022-10-16T15:19:28;22.75;;;16.98;;
49458;SDS011;35354;51.296;16.924;2022-10-16T15:21:54;20.55;;;16.60;;
49458;SDS011;35354;51.296;16.924;2022-10-16T15:24:20;24.30;;;18.77;;
49458;SDS011;35354;51.296;16.924;2022-10-16T15:26:45;27.40;;;21.30;;
49458;SDS011;35354;51.296;16.924;2022-10-16T15:29:11;20.50;;;16.10;;
49458;SDS011;35354;51.296;16.924;2022-10-16T15:31:38;15.40;;;12.02;;
49458;SDS011;35354;51.296;16.924;2022-10-16T15:34:08;20.67;;;17.73;;
49458;SDS011;35354;51.296;16.924;2022-10-16T15:36:35;19.60;;;16.60;;
49458;SDS011;35354;51.296;16.924;2022-10-16T15:39:04;13.48;;;11.70;;
49458;SDS011;35354;51.296;16.924;2022-10-16T15:41:37;14.27;;;12.65;;
49458;SDS011;35354;51.296;16.924;2022-10-16T15:44:03;14.43;;;11.98;;
49458;SDS011;35354;51.296;16.924;2022-10-16T15:46:29;16.42;;;11.85;;
49458;SDS011;35354;51.296;16.924;2022-10-16T15:48:57;14.00;;;12.35;;
49458;SDS011;35354;51.296;16.924;2022-10-16T15:51:23;24.17;;;19.85;;
49458;SDS011;35354;51.296;16.924;2022-10-16T15:53:49;30.13;;;22.55;;
49458;SDS011;35354;51.296;16.924;2022-10-16T15:56:16;28.27;;;21.30;;
49458;SDS011;35354;51.296;16.924;2022-10-16T15:58:42;27.55;;;19.25;;
49458;SDS011;35354;51.296;16.924;2022-10-16T16:01:08;24.75;;;17.73;;
49458;SDS011;35354;51.296;16.924;2022-10-16T16:03:35;24.30;;;17.08;;
49458;SDS011;35354;51.296;16.924;2022-10-16T16:06:04;23.67;;;15.98;;
49458;SDS011;35354;51.296;16.924;2022-10-16T16:08:31;19.33;;;15.38;;
49458;SDS011;35354;51.296;16.924;2022-10-16T16:10:59;16.55;;;11.98;;
49458;SDS011;35354;51.296;16.924;2022-10-16T16:13:26;15.75;;;12.15;;
49458;SDS011;35354;51.296;16.924;2022-10-16T16:15:51;15.98;;;12.23;;
49458;SDS011;35354;51.296;16.924;2022-10-16T16:18:17;17.15;;;10.85;;
49458;SDS011;35354;51.296;16.924;2022-10-16T16:20:42;15.65;;;11.65;;
49458;SDS011;35354;51.296;16.924;2022-10-16T16:23:07;14.07;;;12.02;;